sensor_id;sensor_type;location;lat;lon;timestamp;P1;durP1;ratioP1;P2;durP2;ratioP2
48627;SDS011;34424;52.234;6.500;2023-08-07T00:00:34;2.2;;;1.2;;
48627;SDS011;34424;52.234;6.500;2023-08-07T00:05:34;4.3;;;1.3;;
48627;SDS011;34424;52.234;6.500;2023-08-07T00:10:34;3.3;;;1.6;;
48627;SDS011;34424;52.234;6.500;2023-08-07T00:15:36;5.6;;;2;;
48627;SDS011;34424;52.234;6.500;2023-08-07T00:20:34;7.4;;;2.4;;
48627;SDS011;34424;52.234;6.500;2023-08-07T00:25:33;7.6;;;2.7;;
48627;SDS011;34424;52.234;6.500;2023-08-07T00:30:33;5.1;;;2.2;;
48627;SDS011;34424;52.234;6.500;2023-08-07T00:35:33;5.1;;;2.4;;
48627;SDS011;34424;52.234;6.500;2023-08-07T00:40:39;5.6;;;2.2;;
48627;SDS011;34424;52.234;6.500;2023-08-07T00:45:35;8.5;;;2.6;;
48627;SDS011;34424;52.234;6.500;2023-08-07T00:50:33;9.3;;;2.5;;
48627;SDS011;34424;52.234;6.500;2023-08-07T00:55:33;7.9;;;2.7;;
48627;SDS011;34424;52.234;6.500;2023-08-07T01:00:33;6.2;;;2.7;;
48627;SDS011;34424;52.234;6.500;2023-08-07T01:05:33;5.9;;;2.5;;
48627;SDS011;34424;52.234;6.500;2023-08-07T01:10:35;6;;;2.9;;
48627;SDS011;34424;52.234;6.500;2023-08-07T01:15:33;6.8;;;2.9;;
48627;SDS011;34424;52.234;6.500;2023-08-07T01:20:33;7.8;;;3.3;;
48627;SDS011;34424;52.234;6.500;2023-08-07T01:25:33;9.1;;;3.4;;
48627;SDS011;34424;52.234;6.500;2023-08-07T01:30:33;11.2;;;3.6;;
48627;SDS011;34424;52.234;6.500;2023-08-07T01:35:35;8.2;;;3.4;;
48627;SDS011;34424;52.234;6.500;2023-08-07T01:40:32;6.1;;;2.9;;
48627;SDS011;34424;52.234;6.500;2023-08-07T01:45:32;6.9;;;2.6;;
48627;SDS011;34424;52.234;6.500;2023-08-07T01:50:32;7.6;;;2.1;;
48627;SDS011;34424;52.234;6.500;2023-08-07T01:55:32;4;;;1.5;;
48627;SDS011;34424;52.234;6.500;2023-08-07T02:00:32;9.8;;;2;;
48627;SDS011;34424;52.234;6.500;2023-08-07T02:05:32;4.8;;;2;;
48627;SDS011;34424;52.234;6.500;2023-08-07T02:10:32;3.8;;;2.1;;
48627;SDS011;34424;52.234;6.500;2023-08-07T02:15:32;4.2;;;2.3;;
48627;SDS011;34424;52.234;6.500;2023-08-07T02:20:32;2.9;;;2.2;;
48627;SDS011;34424;52.234;6.500;2023-08-07T02:25:32;3.5;;;1.7;;
48627;SDS011;34424;52.234;6.500;2023-08-07T02:30:32;5.2;;;2.2;;
48627;SDS011;34424;52.234;6.500;2023-08-07T02:35:32;5.3;;;2.2;;
48627;SDS011;34424;52.234;6.500;2023-08-07T02:40:32;4.4;;;2.5;;
48627;SDS011;34424;52.234;6.500;2023-08-07T02:45:32;9;;;3.5;;
48627;SDS011;34424;52.234;6.500;2023-08-07T02:50:31;14.4;;;7.4;;
48627;SDS011;34424;52.234;6.500;2023-08-07T02:55:31;19.6;;;9.6;;
48627;SDS011;34424;52.234;6.500;2023-08-07T03:00:31;21.5;;;7.7;;
48627;SDS011;34424;52.234;6.500;2023-08-07T03:05:31;11;;;5.8;;
48627;SDS011;34424;52.234;6.500;2023-08-07T03:10:31;12.8;;;4.7;;
48627;SDS011;34424;52.234;6.500;2023-08-07T03:15:31;9;;;3.7;;
48627;SDS011;34424;52.234;6.500;2023-08-07T03:20:31;8.9;;;3.8;;
48627;SDS011;34424;52.234;6.500;2023-08-07T03:25:31;9.7;;;4;;
48627;SDS011;34424;52.234;6.500;2023-08-07T03:30:31;8.9;;;3.6;;
48627;SDS011;34424;52.234;6.500;2023-08-07T03:35:31;7;;;3.4;;
48627;SDS011;34424;52.234;6.500;2023-08-07T03:40:30;9.5;;;3.9;;
48627;SDS011;34424;52.234;6.500;2023-08-07T03:45:30;11.1;;;3.6;;
48627;SDS011;34424;52.234;6.500;2023-08-07T03:50:30;10;;;3.6;;
48627;SDS011;34424;52.234;6.500;2023-08-07T03:55:30;6.2;;;3.2;;
48627;SDS011;34424;52.234;6.500;2023-08-07T04:00:30;5.9;;;3;;
48627;SDS011;34424;52.234;6.500;2023-08-07T04:05:32;5.2;;;2.9;;
48627;SDS011;34424;52.234;6.500;2023-08-07T04:10:30;7.2;;;3.2;;
48627;SDS011;34424;52.234;6.500;2023-08-07T04:15:30;6.3;;;2.9;;
48627;SDS011;34424;52.234;6.500;2023-08-07T04:20:29;5.4;;;2.8;;
48627;SDS011;34424;52.234;6.500;2023-08-07T04:25:29;8.4;;;3.1;;
48627;SDS011;34424;52.234;6.500;2023-08-07T04:30:29;7.6;;;2.9;;
48627;SDS011;34424;52.234;6.500;2023-08-07T04:35:29;8.4;;;3.4;;
48627;SDS011;34424;52.234;6.500;2023-08-07T04:40:29;8.5;;;3.8;;
48627;SDS011;34424;52.234;6.500;2023-08-07T04:45:29;11.3;;;4.9;;
48627;SDS011;34424;52.234;6.500;2023-08-07T04:50:29;10.4;;;5.1;;
48627;SDS011;34424;52.234;6.500;2023-08-07T04:55:29;14.1;;;5.5;;
48627;SDS011;34424;52.234;6.500;2023-08-07T05:00:29;10.6;;;5.1;;
48627;SDS011;34424;52.234;6.500;2023-08-07T05:05:29;13.5;;;5.9;;
48627;SDS011;34424;52.234;6.500;2023-08-07T05:10:29;11.2;;;5.6;;
48627;SDS011;34424;52.234;6.500;2023-08-07T05:15:29;11.6;;;5.2;;
48627;SDS011;34424;52.234;6.500;2023-08-07T05:20:29;11.8;;;4.9;;
48627;SDS011;34424;52.234;6.500;2023-08-07T05:25:29;10.3;;;4.7;;
48627;SDS011;34424;52.234;6.500;2023-08-07T05:30:28;11.5;;;5.2;;
48627;SDS011;34424;52.234;6.500;2023-08-07T05:35:28;10.7;;;5.1;;
48627;SDS011;34424;52.234;6.500;2023-08-07T05:40:28;11.4;;;5.5;;
48627;SDS011;34424;52.234;6.500;2023-08-07T05:45:28;13;;;5.6;;
48627;SDS011;34424;52.234;6.500;2023-08-07T05:50:28;11.4;;;5.7;;
48627;SDS011;34424;52.234;6.500;2023-08-07T05:55:28;11.5;;;5.9;;
48627;SDS011;34424;52.234;6.500;2023-08-07T06:00:28;9.3;;;4.5;;
48627;SDS011;34424;52.234;6.500;2023-08-07T06:05:28;7.2;;;4.1;;
48627;SDS011;34424;52.234;6.500;2023-08-07T06:10:28;7.7;;;4;;
48627;SDS011;34424;52.234;6.500;2023-08-07T06:15:28;9.4;;;4.3;;
48627;SDS011;34424;52.234;6.500;2023-08-07T06:20:28;10.4;;;4.5;;
48627;SDS011;34424;52.234;6.500;2023-08-07T06:25:28;12.3;;;4.7;;
48627;SDS011;34424;52.234;6.500;2023-08-07T06:30:28;10.8;;;5;;
48627;SDS011;34424;52.234;6.500;2023-08-07T06:35:28;10;;;4.5;;
48627;SDS011;34424;52.234;6.500;2023-08-07T06:40:28;12.9;;;4.2;;
48627;SDS011;34424;52.234;6.500;2023-08-07T06:45:28;10.2;;;4.2;;
48627;SDS011;34424;52.234;6.500;2023-08-07T06:50:28;11.9;;;4.5;;
48627;SDS011;34424;52.234;6.500;2023-08-07T06:55:28;7.8;;;4.6;;
48627;SDS011;34424;52.234;6.500;2023-08-07T07:00:28;10.7;;;4.5;;
48627;SDS011;34424;52.234;6.500;2023-08-07T07:05:28;12.9;;;5;;
48627;SDS011;34424;52.234;6.500;2023-08-07T07:10:28;13.5;;;5.6;;
48627;SDS011;34424;52.234;6.500;2023-08-07T07:15:27;11.6;;;4.9;;
48627;SDS011;34424;52.234;6.500;2023-08-07T07:20:28;15.9;;;5.1;;
48627;SDS011;34424;52.234;6.500;2023-08-07T07:25:27;14.2;;;5.3;;
48627;SDS011;34424;52.234;6.500;2023-08-07T07:30:27;10.2;;;4.4;;
48627;SDS011;34424;52.234;6.500;2023-08-07T07:35:27;11.5;;;4.5;;
48627;SDS011;34424;52.234;6.500;2023-08-07T07:40:28;11.2;;;4.8;;
48627;SDS011;34424;52.234;6.500;2023-08-07T07:45:28;11.9;;;5.2;;
48627;SDS011;34424;52.234;6.500;2023-08-07T07:50:28;8;;;4.2;;
48627;SDS011;34424;52.234;6.500;2023-08-07T07:55:28;8.4;;;3.8;;
48627;SDS011;34424;52.234;6.500;2023-08-07T08:00:28;11.6;;;4;;
48627;SDS011;34424;52.234;6.500;2023-08-07T08:05:28;8.3;;;3.8;;
48627;SDS011;34424;52.234;6.500;2023-08-07T08:10:28;6.2;;;3.3;;
48627;SDS011;34424;52.234;6.500;2023-08-07T08:15:28;8.7;;;3;;
48627;SDS011;34424;52.234;6.500;2023-08-07T08:20:28;5.6;;;2.8;;
48627;SDS011;34424;52.234;6.500;2023-08-07T08:25:28;7.8;;;3.3;;
48627;SDS011;34424;52.234;6.500;2023-08-07T08:30:28;7.7;;;3.1;;
48627;SDS011;34424;52.234;6.500;2023-08-07T08:35:28;8.4;;;2.8;;
48627;SDS011;34424;52.234;6.500;2023-08-07T08:40:29;9;;;3.1;;
48627;SDS011;34424;52.234;6.500;2023-08-07T08:45:29;9.9;;;3.2;;
48627;SDS011;34424;52.234;6.500;2023-08-07T08:50:29;5.5;;;2.5;;
48627;SDS011;34424;52.234;6.500;2023-08-07T08:55:30;5.7;;;2.2;;
48627;SDS011;34424;52.234;6.500;2023-08-07T09:00:30;5.7;;;2.4;;
48627;SDS011;34424;52.234;6.500;2023-08-07T09:05:30;6.4;;;2.7;;
48627;SDS011;34424;52.234;6.500;2023-08-07T09:10:30;8.3;;;2.7;;
48627;SDS011;34424;52.234;6.500;2023-08-07T09:15:31;6.6;;;2.2;;
48627;SDS011;34424;52.234;6.500;2023-08-07T09:20:31;8.2;;;2.7;;
48627;SDS011;34424;52.234;6.500;2023-08-07T09:25:32;7.4;;;2.8;;
48627;SDS011;34424;52.234;6.500;2023-08-07T09:30:32;5.6;;;2.2;;
48627;SDS011;34424;52.234;6.500;2023-08-07T09:35:32;8;;;2.9;;
48627;SDS011;34424;52.234;6.500;2023-08-07T09:40:32;8.1;;;3;;
48627;SDS011;34424;52.234;6.500;2023-08-07T09:45:32;7.2;;;2.6;;
48627;SDS011;34424;52.234;6.500;2023-08-07T09:50:33;8;;;2.9;;
48627;SDS011;34424;52.234;6.500;2023-08-07T09:55:33;7.4;;;3;;
48627;SDS011;34424;52.234;6.500;2023-08-07T10:00:36;8.1;;;3.1;;
48627;SDS011;34424;52.234;6.500;2023-08-07T10:05:33;5.8;;;2.1;;
48627;SDS011;34424;52.234;6.500;2023-08-07T10:10:35;5.2;;;2.5;;
48627;SDS011;34424;52.234;6.500;2023-08-07T10:15:34;4.4;;;1.6;;
48627;SDS011;34424;52.234;6.500;2023-08-07T10:20:34;5.7;;;2.2;;
48627;SDS011;34424;52.234;6.500;2023-08-07T10:25:35;3.1;;;1.6;;
48627;SDS011;34424;52.234;6.500;2023-08-07T10:30:35;3.6;;;1.5;;
48627;SDS011;34424;52.234;6.500;2023-08-07T10:35:35;5.5;;;2.2;;
48627;SDS011;34424;52.234;6.500;2023-08-07T10:40:35;3.8;;;1.8;;
48627;SDS011;34424;52.234;6.500;2023-08-07T10:45:36;5.5;;;2;;
48627;SDS011;34424;52.234;6.500;2023-08-07T10:50:46;5;;;2.2;;
48627;SDS011;34424;52.234;6.500;2023-08-07T10:55:46;5.5;;;2.1;;
48627;SDS011;34424;52.234;6.500;2023-08-07T11:00:36;4.4;;;2.2;;
48627;SDS011;34424;52.234;6.500;2023-08-07T11:05:36;6.2;;;2.4;;
48627;SDS011;34424;52.234;6.500;2023-08-07T11:10:37;7.1;;;2.5;;
48627;SDS011;34424;52.234;6.500;2023-08-07T11:15:45;7.4;;;2.5;;
48627;SDS011;34424;52.234;6.500;2023-08-07T11:20:37;9.5;;;2.6;;
48627;SDS011;34424;52.234;6.500;2023-08-07T11:25:37;8.9;;;2.8;;
48627;SDS011;34424;52.234;6.500;2023-08-07T11:30:37;6.7;;;2.4;;
48627;SDS011;34424;52.234;6.500;2023-08-07T11:35:37;4.7;;;2.4;;
48627;SDS011;34424;52.234;6.500;2023-08-07T11:40:37;6.3;;;2.3;;
48627;SDS011;34424;52.234;6.500;2023-08-07T11:45:38;4.3;;;2.2;;
48627;SDS011;34424;52.234;6.500;2023-08-07T11:50:41;8;;;2.6;;
48627;SDS011;34424;52.234;6.500;2023-08-07T11:55:38;7.3;;;2.6;;
48627;SDS011;34424;52.234;6.500;2023-08-07T12:00:38;7.8;;;2.8;;
48627;SDS011;34424;52.234;6.500;2023-08-07T12:05:41;4.5;;;2.4;;
48627;SDS011;34424;52.234;6.500;2023-08-07T12:10:38;6.1;;;2.7;;
48627;SDS011;34424;52.234;6.500;2023-08-07T12:15:38;6.4;;;2.5;;
48627;SDS011;34424;52.234;6.500;2023-08-07T12:20:39;5.1;;;2.2;;
48627;SDS011;34424;52.234;6.500;2023-08-07T12:25:39;6.5;;;2.4;;
48627;SDS011;34424;52.234;6.500;2023-08-07T12:30:40;6.1;;;2.3;;
48627;SDS011;34424;52.234;6.500;2023-08-07T12:35:39;9.2;;;2.2;;
48627;SDS011;34424;52.234;6.500;2023-08-07T12:40:40;5.9;;;2.4;;
48627;SDS011;34424;52.234;6.500;2023-08-07T12:45:40;5.7;;;2.3;;
48627;SDS011;34424;52.234;6.500;2023-08-07T12:50:40;3.9;;;2.2;;
48627;SDS011;34424;52.234;6.500;2023-08-07T12:55:40;4.2;;;1.9;;
48627;SDS011;34424;52.234;6.500;2023-08-07T13:00:40;5;;;1.7;;
48627;SDS011;34424;52.234;6.500;2023-08-07T13:05:41;3.3;;;1.7;;
48627;SDS011;34424;52.234;6.500;2023-08-07T13:10:41;4.2;;;1.9;;
48627;SDS011;34424;52.234;6.500;2023-08-07T13:15:41;4.3;;;2;;
48627;SDS011;34424;52.234;6.500;2023-08-07T13:20:41;5.6;;;1.8;;
48627;SDS011;34424;52.234;6.500;2023-08-07T13:25:42;3.9;;;1.9;;
48627;SDS011;34424;52.234;6.500;2023-08-07T13:30:42;4.2;;;1.8;;
48627;SDS011;34424;52.234;6.500;2023-08-07T13:35:42;4.9;;;2.3;;
48627;SDS011;34424;52.234;6.500;2023-08-07T13:40:42;3.7;;;2;;
48627;SDS011;34424;52.234;6.500;2023-08-07T13:45:43;4.8;;;2.2;;
48627;SDS011;34424;52.234;6.500;2023-08-07T13:50:43;4.2;;;2.1;;
48627;SDS011;34424;52.234;6.500;2023-08-07T13:55:43;4.5;;;2.1;;
48627;SDS011;34424;52.234;6.500;2023-08-07T14:00:43;3.5;;;2.1;;
48627;SDS011;34424;52.234;6.500;2023-08-07T14:05:44;5.5;;;2.1;;
48627;SDS011;34424;52.234;6.500;2023-08-07T14:10:44;5.4;;;2.1;;
48627;SDS011;34424;52.234;6.500;2023-08-07T14:15:44;4.5;;;2;;
48627;SDS011;34424;52.234;6.500;2023-08-07T14:20:44;5.2;;;2.2;;
48627;SDS011;34424;52.234;6.500;2023-08-07T14:25:45;5;;;1.8;;
48627;SDS011;34424;52.234;6.500;2023-08-07T14:30:45;3.3;;;1.9;;
48627;SDS011;34424;52.234;6.500;2023-08-07T14:35:45;2.3;;;1.7;;
48627;SDS011;34424;52.234;6.500;2023-08-07T14:40:45;6.4;;;1.8;;
48627;SDS011;34424;52.234;6.500;2023-08-07T14:45:45;5.8;;;2.1;;
48627;SDS011;34424;52.234;6.500;2023-08-07T14:50:45;4;;;1.7;;
48627;SDS011;34424;52.234;6.500;2023-08-07T14:55:47;4;;;2.1;;
48627;SDS011;34424;52.234;6.500;2023-08-07T15:00:46;3.6;;;1.8;;
48627;SDS011;34424;52.234;6.500;2023-08-07T15:05:46;3.9;;;1.5;;
48627;SDS011;34424;52.234;6.500;2023-08-07T15:10:46;4.2;;;1.8;;
48627;SDS011;34424;52.234;6.500;2023-08-07T15:15:49;4.9;;;1.8;;
48627;SDS011;34424;52.234;6.500;2023-08-07T15:20:46;3.9;;;1.7;;
48627;SDS011;34424;52.234;6.500;2023-08-07T15:25:46;3.1;;;1.6;;
48627;SDS011;34424;52.234;6.500;2023-08-07T15:30:50;4.6;;;1.9;;
48627;SDS011;34424;52.234;6.500;2023-08-07T15:35:47;4.7;;;1.9;;
48627;SDS011;34424;52.234;6.500;2023-08-07T15:40:47;3.4;;;2;;
48627;SDS011;34424;52.234;6.500;2023-08-07T15:45:49;3.7;;;1.5;;
48627;SDS011;34424;52.234;6.500;2023-08-07T15:50:47;3.9;;;1.7;;
48627;SDS011;34424;52.234;6.500;2023-08-07T15:55:47;4.2;;;1.7;;
48627;SDS011;34424;52.234;6.500;2023-08-07T16:00:47;4.2;;;1.9;;
48627;SDS011;34424;52.234;6.500;2023-08-07T16:05:48;4.7;;;1.9;;
48627;SDS011;34424;52.234;6.500;2023-08-07T16:10:47;4;;;1.7;;
48627;SDS011;34424;52.234;6.500;2023-08-07T16:15:48;4;;;1.6;;
48627;SDS011;34424;52.234;6.500;2023-08-07T16:20:48;4.5;;;1.8;;
48627;SDS011;34424;52.234;6.500;2023-08-07T16:25:48;4.9;;;2.4;;
48627;SDS011;34424;52.234;6.500;2023-08-07T16:30:48;4.6;;;1.8;;
48627;SDS011;34424;52.234;6.500;2023-08-07T16:35:48;5.2;;;2.4;;
48627;SDS011;34424;52.234;6.500;2023-08-07T16:40:48;4.9;;;1.8;;
48627;SDS011;34424;52.234;6.500;2023-08-07T16:45:48;2.9;;;1.6;;
48627;SDS011;34424;52.234;6.500;2023-08-07T16:50:48;4.6;;;2;;
48627;SDS011;34424;52.234;6.500;2023-08-07T16:55:49;4.6;;;1.8;;
48627;SDS011;34424;52.234;6.500;2023-08-07T17:00:49;3;;;1.9;;
48627;SDS011;34424;52.234;6.500;2023-08-07T17:05:49;3;;;1.6;;
48627;SDS011;34424;52.234;6.500;2023-08-07T17:10:49;4;;;1.8;;
48627;SDS011;34424;52.234;6.500;2023-08-07T17:15:49;4.5;;;2.1;;
48627;SDS011;34424;52.234;6.500;2023-08-07T17:20:49;3.1;;;1.6;;
48627;SDS011;34424;52.234;6.500;2023-08-07T17:25:50;3.8;;;1.6;;
48627;SDS011;34424;52.234;6.500;2023-08-07T17:30:50;3.4;;;1.7;;
48627;SDS011;34424;52.234;6.500;2023-08-07T17:35:50;3.3;;;1.7;;
48627;SDS011;34424;52.234;6.500;2023-08-07T17:40:50;2.6;;;1.4;;
48627;SDS011;34424;52.234;6.500;2023-08-07T17:45:50;3.2;;;1.8;;
48627;SDS011;34424;52.234;6.500;2023-08-07T17:50:50;3.8;;;2.1;;
48627;SDS011;34424;52.234;6.500;2023-08-07T17:55:51;3.5;;;1.8;;
48627;SDS011;34424;52.234;6.500;2023-08-07T18:00:51;4.3;;;1.8;;
48627;SDS011;34424;52.234;6.500;2023-08-07T18:05:51;4.1;;;2.2;;
48627;SDS011;34424;52.234;6.500;2023-08-07T18:10:51;3.5;;;1.8;;
48627;SDS011;34424;52.234;6.500;2023-08-07T18:15:51;2.7;;;1.9;;
48627;SDS011;34424;52.234;6.500;2023-08-07T18:20:51;2.9;;;1.8;;
48627;SDS011;34424;52.234;6.500;2023-08-07T18:25:51;5.6;;;2.7;;
48627;SDS011;34424;52.234;6.500;2023-08-07T18:30:51;4.6;;;2.2;;
48627;SDS011;34424;52.234;6.500;2023-08-07T18:35:51;5.1;;;2.4;;
48627;SDS011;34424;52.234;6.500;2023-08-07T18:40:51;4.9;;;2.5;;
48627;SDS011;34424;52.234;6.500;2023-08-07T18:45:51;3;;;2.2;;
48627;SDS011;34424;52.234;6.500;2023-08-07T18:50:51;4.8;;;2.3;;
48627;SDS011;34424;52.234;6.500;2023-08-07T18:55:51;5.1;;;2.5;;
48627;SDS011;34424;52.234;6.500;2023-08-07T19:00:51;3.5;;;3.2;;
48627;SDS011;34424;52.234;6.500;2023-08-07T19:05:50;8.4;;;5.8;;
48627;SDS011;34424;52.234;6.500;2023-08-07T19:10:50;10.6;;;9.6;;
48627;SDS011;34424;52.234;6.500;2023-08-07T19:15:50;5.2;;;4.7;;
48627;SDS011;34424;52.234;6.500;2023-08-07T19:20:50;4.8;;;2.9;;
48627;SDS011;34424;52.234;6.500;2023-08-07T19:25:50;4.3;;;2.3;;
48627;SDS011;34424;52.234;6.500;2023-08-07T19:30:50;5.5;;;2.9;;
48627;SDS011;34424;52.234;6.500;2023-08-07T19:35:50;3.9;;;2.5;;
48627;SDS011;34424;52.234;6.500;2023-08-07T19:40:50;6.1;;;2.9;;
48627;SDS011;34424;52.234;6.500;2023-08-07T19:45:50;4.1;;;2.7;;
48627;SDS011;34424;52.234;6.500;2023-08-07T19:50:50;3.8;;;2.7;;
48627;SDS011;34424;52.234;6.500;2023-08-07T19:55:49;5.5;;;2.9;;
48627;SDS011;34424;52.234;6.500;2023-08-07T20:00:49;5.1;;;3.2;;
48627;SDS011;34424;52.234;6.500;2023-08-07T20:05:49;4.4;;;3.2;;
48627;SDS011;34424;52.234;6.500;2023-08-07T20:10:49;4.7;;;3.4;;
48627;SDS011;34424;52.234;6.500;2023-08-07T20:15:49;4.6;;;3.5;;
48627;SDS011;34424;52.234;6.500;2023-08-07T20:20:49;5.6;;;4;;
48627;SDS011;34424;52.234;6.500;2023-08-07T20:25:49;4.4;;;4;;
48627;SDS011;34424;52.234;6.500;2023-08-07T20:30:48;4.8;;;3.9;;
48627;SDS011;34424;52.234;6.500;2023-08-07T20:35:48;6.2;;;4.1;;
48627;SDS011;34424;52.234;6.500;2023-08-07T20:40:48;5.3;;;3.9;;
48627;SDS011;34424;52.234;6.500;2023-08-07T20:45:48;6.5;;;4.4;;
48627;SDS011;34424;52.234;6.500;2023-08-07T20:50:49;5.6;;;4;;
48627;SDS011;34424;52.234;6.500;2023-08-07T20:55:48;5.9;;;4;;
48627;SDS011;34424;52.234;6.500;2023-08-07T21:00:48;4.8;;;4.2;;
48627;SDS011;34424;52.234;6.500;2023-08-07T21:05:47;6;;;4;;
48627;SDS011;34424;52.234;6.500;2023-08-07T21:10:47;4.9;;;3.6;;
48627;SDS011;34424;52.234;6.500;2023-08-07T21:15:47;6.2;;;4.2;;
48627;SDS011;34424;52.234;6.500;2023-08-07T21:20:47;5.8;;;4.3;;
48627;SDS011;34424;52.234;6.500;2023-08-07T21:25:47;4.6;;;3.9;;
48627;SDS011;34424;52.234;6.500;2023-08-07T21:30:47;7;;;4.5;;
48627;SDS011;34424;52.234;6.500;2023-08-07T21:35:47;4.3;;;3.9;;
48627;SDS011;34424;52.234;6.500;2023-08-07T21:40:46;5.8;;;4;;
48627;SDS011;34424;52.234;6.500;2023-08-07T21:45:46;7;;;4.4;;
48627;SDS011;34424;52.234;6.500;2023-08-07T21:50:46;5.6;;;3.8;;
48627;SDS011;34424;52.234;6.500;2023-08-07T21:55:46;6;;;4.8;;
48627;SDS011;34424;52.234;6.500;2023-08-07T22:00:46;4.1;;;3.7;;
48627;SDS011;34424;52.234;6.500;2023-08-07T22:05:46;8.1;;;4.7;;
48627;SDS011;34424;52.234;6.500;2023-08-07T22:10:45;6.4;;;4.3;;
48627;SDS011;34424;52.234;6.500;2023-08-07T22:15:45;5.2;;;4.1;;
48627;SDS011;34424;52.234;6.500;2023-08-07T22:20:45;7.1;;;4.7;;
48627;SDS011;34424;52.234;6.500;2023-08-07T22:25:45;5.2;;;4.7;;
48627;SDS011;34424;52.234;6.500;2023-08-07T22:30:45;6.5;;;4.1;;
48627;SDS011;34424;52.234;6.500;2023-08-07T22:35:45;5.6;;;4.2;;
48627;SDS011;34424;52.234;6.500;2023-08-07T22:40:45;4.6;;;4;;
48627;SDS011;34424;52.234;6.500;2023-08-07T22:50:44;5.7;;;3.8;;
48627;SDS011;34424;52.234;6.500;2023-08-07T22:55:45;4.7;;;3.8;;
48627;SDS011;34424;52.234;6.500;2023-08-07T23:00:44;8;;;4.2;;
48627;SDS011;34424;52.234;6.500;2023-08-07T23:05:44;8.7;;;4.8;;
48627;SDS011;34424;52.234;6.500;2023-08-07T23:10:44;6.3;;;5.1;;
48627;SDS011;34424;52.234;6.500;2023-08-07T23:15:44;5.9;;;4.9;;
48627;SDS011;34424;52.234;6.500;2023-08-07T23:20:44;6.3;;;5.1;;
48627;SDS011;34424;52.234;6.500;2023-08-07T23:25:44;7.5;;;5.9;;
48627;SDS011;34424;52.234;6.500;2023-08-07T23:30:43;11.3;;;6.7;;
48627;SDS011;34424;52.234;6.500;2023-08-07T23:35:43;9.6;;;7;;
48627;SDS011;34424;52.234;6.500;2023-08-07T23:40:43;11.3;;;7.4;;
48627;SDS011;34424;52.234;6.500;2023-08-07T23:45:43;10.5;;;8;;
48627;SDS011;34424;52.234;6.500;2023-08-07T23:50:43;11.5;;;8.3;;
48627;SDS011;34424;52.234;6.500;2023-08-07T23:55:43;9;;;8.1;;
